sensor_id;sensor_type;location;lat;lon;timestamp;P1;durP1;ratioP1;P2;durP2;ratioP2
20705;SDS011;10514;49.468;11.044;2024-03-02T00:02:24;37.90;;;21.23;;
20705;SDS011;10514;49.468;11.044;2024-03-02T00:04:50;36.03;;;21.47;;
20705;SDS011;10514;49.468;11.044;2024-03-02T00:07:15;39.10;;;22.30;;
20705;SDS011;10514;49.468;11.044;2024-03-02T00:09:42;37.17;;;21.73;;
20705;SDS011;10514;49.468;11.044;2024-03-02T00:12:07;38.60;;;22.53;;
20705;SDS011;10514;49.468;11.044;2024-03-02T00:14:36;38.03;;;21.10;;
20705;SDS011;10514;49.468;11.044;2024-03-02T00:17:02;36.90;;;22.00;;
20705;SDS011;10514;49.468;11.044;2024-03-02T00:19:27;38.10;;;22.33;;
20705;SDS011;10514;49.468;11.044;2024-03-02T00:21:53;37.80;;;21.80;;
20705;SDS011;10514;49.468;11.044;2024-03-02T00:24:32;33.03;;;20.77;;
20705;SDS011;10514;49.468;11.044;2024-03-02T00:26:59;35.65;;;20.80;;
20705;SDS011;10514;49.468;11.044;2024-03-02T00:29:25;35.17;;;21.00;;
20705;SDS011;10514;49.468;11.044;2024-03-02T00:31:52;40.37;;;22.00;;
20705;SDS011;10514;49.468;11.044;2024-03-02T00:34:18;39.97;;;21.93;;
20705;SDS011;10514;49.468;11.044;2024-03-02T00:36:44;36.77;;;20.93;;
20705;SDS011;10514;49.468;11.044;2024-03-02T00:39:11;34.43;;;20.73;;
20705;SDS011;10514;49.468;11.044;2024-03-02T00:41:40;34.77;;;20.60;;
20705;SDS011;10514;49.468;11.044;2024-03-02T00:44:10;35.80;;;21.40;;
20705;SDS011;10514;49.468;11.044;2024-03-02T00:46:41;34.70;;;21.40;;
20705;SDS011;10514;49.468;11.044;2024-03-02T00:49:12;37.40;;;22.05;;
20705;SDS011;10514;49.468;11.044;2024-03-02T00:51:49;36.25;;;21.80;;
20705;SDS011;10514;49.468;11.044;2024-03-02T00:54:20;34.30;;;20.37;;
20705;SDS011;10514;49.468;11.044;2024-03-02T00:56:53;35.27;;;19.97;;
20705;SDS011;10514;49.468;11.044;2024-03-02T00:59:20;37.00;;;20.63;;
20705;SDS011;10514;49.468;11.044;2024-03-02T01:01:47;36.17;;;21.40;;
20705;SDS011;10514;49.468;11.044;2024-03-02T01:04:14;35.60;;;20.97;;
20705;SDS011;10514;49.468;11.044;2024-03-02T01:06:39;34.83;;;21.13;;
20705;SDS011;10514;49.468;11.044;2024-03-02T01:09:05;35.90;;;20.70;;
20705;SDS011;10514;49.468;11.044;2024-03-02T01:11:31;35.83;;;21.77;;
20705;SDS011;10514;49.468;11.044;2024-03-02T01:13:56;33.10;;;20.07;;
20705;SDS011;10514;49.468;11.044;2024-03-02T01:16:22;36.00;;;21.63;;
20705;SDS011;10514;49.468;11.044;2024-03-02T01:18:48;40.53;;;22.67;;
20705;SDS011;10514;49.468;11.044;2024-03-02T01:21:14;37.87;;;22.77;;
20705;SDS011;10514;49.468;11.044;2024-03-02T01:23:40;36.47;;;21.23;;
20705;SDS011;10514;49.468;11.044;2024-03-02T01:26:05;38.27;;;21.90;;
20705;SDS011;10514;49.468;11.044;2024-03-02T01:28:32;37.23;;;21.70;;
20705;SDS011;10514;49.468;11.044;2024-03-02T01:30:57;37.00;;;21.03;;
20705;SDS011;10514;49.468;11.044;2024-03-02T01:33:23;38.17;;;21.63;;
20705;SDS011;10514;49.468;11.044;2024-03-02T01:35:48;38.47;;;22.33;;
20705;SDS011;10514;49.468;11.044;2024-03-02T01:38:14;36.47;;;21.93;;
20705;SDS011;10514;49.468;11.044;2024-03-02T01:40:39;37.30;;;21.80;;
20705;SDS011;10514;49.468;11.044;2024-03-02T01:43:06;37.67;;;22.40;;
20705;SDS011;10514;49.468;11.044;2024-03-02T01:45:33;36.47;;;22.83;;
20705;SDS011;10514;49.468;11.044;2024-03-02T01:48:00;40.17;;;23.13;;
20705;SDS011;10514;49.468;11.044;2024-03-02T01:50:27;36.23;;;21.40;;
20705;SDS011;10514;49.468;11.044;2024-03-02T01:52:54;32.90;;;19.50;;
20705;SDS011;10514;49.468;11.044;2024-03-02T01:55:20;35.57;;;21.03;;
20705;SDS011;10514;49.468;11.044;2024-03-02T01:57:46;39.17;;;21.43;;
20705;SDS011;10514;49.468;11.044;2024-03-02T02:00:13;37.13;;;22.20;;
20705;SDS011;10514;49.468;11.044;2024-03-02T02:02:39;38.97;;;21.13;;
20705;SDS011;10514;49.468;11.044;2024-03-02T02:05:05;34.13;;;20.87;;
20705;SDS011;10514;49.468;11.044;2024-03-02T02:07:30;37.17;;;22.47;;
20705;SDS011;10514;49.468;11.044;2024-03-02T02:09:56;37.77;;;22.63;;
20705;SDS011;10514;49.468;11.044;2024-03-02T02:12:22;41.80;;;23.67;;
20705;SDS011;10514;49.468;11.044;2024-03-02T02:14:48;37.27;;;21.30;;
20705;SDS011;10514;49.468;11.044;2024-03-02T02:17:15;35.73;;;20.57;;
20705;SDS011;10514;49.468;11.044;2024-03-02T02:19:41;34.77;;;21.87;;
20705;SDS011;10514;49.468;11.044;2024-03-02T02:22:07;34.97;;;21.20;;
20705;SDS011;10514;49.468;11.044;2024-03-02T02:24:33;34.73;;;21.13;;
20705;SDS011;10514;49.468;11.044;2024-03-02T02:26:58;39.53;;;22.23;;
20705;SDS011;10514;49.468;11.044;2024-03-02T02:29:24;33.27;;;20.10;;
20705;SDS011;10514;49.468;11.044;2024-03-02T02:31:49;34.57;;;21.27;;
20705;SDS011;10514;49.468;11.044;2024-03-02T02:34:15;36.37;;;20.80;;
20705;SDS011;10514;49.468;11.044;2024-03-02T02:36:41;33.87;;;20.77;;
20705;SDS011;10514;49.468;11.044;2024-03-02T02:39:09;35.10;;;20.77;;
20705;SDS011;10514;49.468;11.044;2024-03-02T02:41:37;40.17;;;21.23;;
20705;SDS011;10514;49.468;11.044;2024-03-02T02:44:03;37.60;;;22.20;;
20705;SDS011;10514;49.468;11.044;2024-03-02T02:46:29;37.07;;;21.63;;
20705;SDS011;10514;49.468;11.044;2024-03-02T02:48:55;35.03;;;20.77;;
20705;SDS011;10514;49.468;11.044;2024-03-02T02:51:20;36.23;;;21.77;;
20705;SDS011;10514;49.468;11.044;2024-03-02T02:53:46;36.03;;;21.87;;
20705;SDS011;10514;49.468;11.044;2024-03-02T02:56:11;35.13;;;20.93;;
20705;SDS011;10514;49.468;11.044;2024-03-02T02:58:37;35.47;;;21.83;;
20705;SDS011;10514;49.468;11.044;2024-03-02T03:01:03;36.10;;;20.83;;
20705;SDS011;10514;49.468;11.044;2024-03-02T03:03:28;37.10;;;21.10;;
20705;SDS011;10514;49.468;11.044;2024-03-02T03:05:54;37.13;;;21.37;;
20705;SDS011;10514;49.468;11.044;2024-03-02T03:08:20;35.03;;;20.60;;
20705;SDS011;10514;49.468;11.044;2024-03-02T03:10:45;37.50;;;21.30;;
20705;SDS011;10514;49.468;11.044;2024-03-02T03:13:11;36.03;;;21.17;;
20705;SDS011;10514;49.468;11.044;2024-03-02T03:15:36;30.93;;;19.40;;
20705;SDS011;10514;49.468;11.044;2024-03-02T03:18:02;35.23;;;19.23;;
20705;SDS011;10514;49.468;11.044;2024-03-02T03:20:29;30.27;;;19.07;;
20705;SDS011;10514;49.468;11.044;2024-03-02T03:22:55;33.60;;;20.60;;
20705;SDS011;10514;49.468;11.044;2024-03-02T03:25:21;33.73;;;19.70;;
20705;SDS011;10514;49.468;11.044;2024-03-02T03:27:46;33.00;;;20.30;;
20705;SDS011;10514;49.468;11.044;2024-03-02T03:30:12;32.07;;;18.87;;
20705;SDS011;10514;49.468;11.044;2024-03-02T03:32:38;30.80;;;18.13;;
20705;SDS011;10514;49.468;11.044;2024-03-02T03:35:04;33.07;;;18.73;;
20705;SDS011;10514;49.468;11.044;2024-03-02T03:37:30;29.43;;;18.27;;
20705;SDS011;10514;49.468;11.044;2024-03-02T03:39:58;30.80;;;19.03;;
20705;SDS011;10514;49.468;11.044;2024-03-02T03:42:24;27.83;;;17.10;;
20705;SDS011;10514;49.468;11.044;2024-03-02T03:44:49;29.87;;;18.17;;
20705;SDS011;10514;49.468;11.044;2024-03-02T03:47:15;30.73;;;18.00;;
20705;SDS011;10514;49.468;11.044;2024-03-02T03:49:40;27.30;;;16.53;;
20705;SDS011;10514;49.468;11.044;2024-03-02T03:52:06;27.73;;;17.10;;
20705;SDS011;10514;49.468;11.044;2024-03-02T03:54:32;28.00;;;16.83;;
20705;SDS011;10514;49.468;11.044;2024-03-02T03:56:57;25.27;;;15.77;;
20705;SDS011;10514;49.468;11.044;2024-03-02T03:59:23;26.13;;;16.33;;
20705;SDS011;10514;49.468;11.044;2024-03-02T04:01:48;29.73;;;16.50;;
20705;SDS011;10514;49.468;11.044;2024-03-02T04:04:14;24.17;;;15.80;;
20705;SDS011;10514;49.468;11.044;2024-03-02T04:06:39;26.00;;;15.87;;
20705;SDS011;10514;49.468;11.044;2024-03-02T04:09:05;24.77;;;14.93;;
20705;SDS011;10514;49.468;11.044;2024-03-02T04:11:31;26.83;;;16.60;;
20705;SDS011;10514;49.468;11.044;2024-03-02T04:13:56;25.20;;;15.70;;
20705;SDS011;10514;49.468;11.044;2024-03-02T04:16:22;23.97;;;14.53;;
20705;SDS011;10514;49.468;11.044;2024-03-02T04:18:47;26.43;;;15.07;;
20705;SDS011;10514;49.468;11.044;2024-03-02T04:21:13;25.07;;;15.63;;
20705;SDS011;10514;49.468;11.044;2024-03-02T04:23:38;21.60;;;13.57;;
20705;SDS011;10514;49.468;11.044;2024-03-02T04:26:04;21.07;;;12.80;;
20705;SDS011;10514;49.468;11.044;2024-03-02T04:28:29;22.03;;;14.03;;
20705;SDS011;10514;49.468;11.044;2024-03-02T04:30:55;22.73;;;13.87;;
20705;SDS011;10514;49.468;11.044;2024-03-02T04:33:20;24.27;;;13.80;;
20705;SDS011;10514;49.468;11.044;2024-03-02T04:35:46;23.57;;;14.30;;
20705;SDS011;10514;49.468;11.044;2024-03-02T04:38:12;21.70;;;13.47;;
20705;SDS011;10514;49.468;11.044;2024-03-02T04:40:37;21.77;;;12.93;;
20705;SDS011;10514;49.468;11.044;2024-03-02T04:43:03;19.20;;;12.70;;
20705;SDS011;10514;49.468;11.044;2024-03-02T04:45:28;22.63;;;13.80;;
20705;SDS011;10514;49.468;11.044;2024-03-02T04:47:54;20.03;;;13.10;;
20705;SDS011;10514;49.468;11.044;2024-03-02T04:50:20;22.30;;;14.27;;
20705;SDS011;10514;49.468;11.044;2024-03-02T04:52:45;22.73;;;13.70;;
20705;SDS011;10514;49.468;11.044;2024-03-02T04:55:11;20.57;;;13.30;;
20705;SDS011;10514;49.468;11.044;2024-03-02T04:57:55;20.73;;;12.93;;
20705;SDS011;10514;49.468;11.044;2024-03-02T05:00:21;21.37;;;13.17;;
20705;SDS011;10514;49.468;11.044;2024-03-02T05:02:46;22.43;;;14.00;;
20705;SDS011;10514;49.468;11.044;2024-03-02T05:05:12;21.50;;;14.27;;
20705;SDS011;10514;49.468;11.044;2024-03-02T05:07:40;20.60;;;13.23;;
20705;SDS011;10514;49.468;11.044;2024-03-02T05:10:07;23.10;;;13.37;;
20705;SDS011;10514;49.468;11.044;2024-03-02T05:12:33;22.10;;;13.53;;
20705;SDS011;10514;49.468;11.044;2024-03-02T05:15:08;23.40;;;13.43;;
20705;SDS011;10514;49.468;11.044;2024-03-02T05:17:35;22.17;;;13.87;;
20705;SDS011;10514;49.468;11.044;2024-03-02T05:20:05;24.20;;;14.63;;
20705;SDS011;10514;49.468;11.044;2024-03-02T05:22:33;23.13;;;14.10;;
20705;SDS011;10514;49.468;11.044;2024-03-02T05:24:59;26.00;;;15.30;;
20705;SDS011;10514;49.468;11.044;2024-03-02T05:27:25;26.17;;;14.93;;
20705;SDS011;10514;49.468;11.044;2024-03-02T05:29:51;23.97;;;14.90;;
20705;SDS011;10514;49.468;11.044;2024-03-02T05:32:17;27.93;;;15.97;;
20705;SDS011;10514;49.468;11.044;2024-03-02T05:34:43;25.83;;;14.57;;
20705;SDS011;10514;49.468;11.044;2024-03-02T05:37:08;24.23;;;14.93;;
20705;SDS011;10514;49.468;11.044;2024-03-02T05:39:34;26.70;;;14.90;;
20705;SDS011;10514;49.468;11.044;2024-03-02T05:41:59;25.90;;;15.33;;
20705;SDS011;10514;49.468;11.044;2024-03-02T05:44:25;25.53;;;14.67;;
20705;SDS011;10514;49.468;11.044;2024-03-02T05:46:50;26.40;;;15.63;;
20705;SDS011;10514;49.468;11.044;2024-03-02T05:49:16;24.83;;;14.67;;
20705;SDS011;10514;49.468;11.044;2024-03-02T05:51:41;22.37;;;13.67;;
20705;SDS011;10514;49.468;11.044;2024-03-02T05:54:07;21.30;;;13.00;;
20705;SDS011;10514;49.468;11.044;2024-03-02T05:56:32;26.07;;;15.20;;
20705;SDS011;10514;49.468;11.044;2024-03-02T05:58:58;23.10;;;14.30;;
20705;SDS011;10514;49.468;11.044;2024-03-02T06:01:37;22.40;;;13.93;;
20705;SDS011;10514;49.468;11.044;2024-03-02T06:04:03;24.67;;;15.20;;
20705;SDS011;10514;49.468;11.044;2024-03-02T06:06:29;23.63;;;13.87;;
20705;SDS011;10514;49.468;11.044;2024-03-02T06:08:55;24.73;;;14.53;;
20705;SDS011;10514;49.468;11.044;2024-03-02T06:11:20;23.10;;;14.27;;
20705;SDS011;10514;49.468;11.044;2024-03-02T06:13:46;22.73;;;13.90;;
20705;SDS011;10514;49.468;11.044;2024-03-02T06:16:11;24.33;;;14.27;;
20705;SDS011;10514;49.468;11.044;2024-03-02T06:18:37;22.63;;;14.30;;
20705;SDS011;10514;49.468;11.044;2024-03-02T06:21:02;25.63;;;14.43;;
20705;SDS011;10514;49.468;11.044;2024-03-02T06:23:28;21.83;;;13.67;;
20705;SDS011;10514;49.468;11.044;2024-03-02T06:25:54;25.03;;;15.00;;
20705;SDS011;10514;49.468;11.044;2024-03-02T06:28:20;23.37;;;14.40;;
20705;SDS011;10514;49.468;11.044;2024-03-02T06:30:45;24.17;;;14.57;;
20705;SDS011;10514;49.468;11.044;2024-03-02T06:33:11;22.97;;;13.80;;
20705;SDS011;10514;49.468;11.044;2024-03-02T06:35:36;21.80;;;13.23;;
20705;SDS011;10514;49.468;11.044;2024-03-02T06:38:02;26.17;;;14.63;;
20705;SDS011;10514;49.468;11.044;2024-03-02T06:40:28;27.07;;;15.13;;
20705;SDS011;10514;49.468;11.044;2024-03-02T06:42:54;25.67;;;15.03;;
20705;SDS011;10514;49.468;11.044;2024-03-02T06:45:19;23.17;;;14.07;;
20705;SDS011;10514;49.468;11.044;2024-03-02T06:47:45;24.33;;;14.43;;
20705;SDS011;10514;49.468;11.044;2024-03-02T06:50:10;24.83;;;14.60;;
20705;SDS011;10514;49.468;11.044;2024-03-02T06:52:36;25.30;;;15.07;;
20705;SDS011;10514;49.468;11.044;2024-03-02T06:55:02;22.80;;;14.67;;
20705;SDS011;10514;49.468;11.044;2024-03-02T06:57:29;26.20;;;15.57;;
20705;SDS011;10514;49.468;11.044;2024-03-02T06:59:55;24.07;;;14.63;;
20705;SDS011;10514;49.468;11.044;2024-03-02T07:02:23;24.57;;;14.73;;
20705;SDS011;10514;49.468;11.044;2024-03-02T07:04:52;25.90;;;15.80;;
20705;SDS011;10514;49.468;11.044;2024-03-02T07:07:18;24.97;;;15.50;;
20705;SDS011;10514;49.468;11.044;2024-03-02T07:09:43;25.23;;;15.40;;
20705;SDS011;10514;49.468;11.044;2024-03-02T07:12:09;23.80;;;14.60;;
20705;SDS011;10514;49.468;11.044;2024-03-02T07:14:34;23.87;;;14.80;;
20705;SDS011;10514;49.468;11.044;2024-03-02T07:17:22;23.20;;;15.03;;
20705;SDS011;10514;49.468;11.044;2024-03-02T07:19:47;23.40;;;14.30;;
20705;SDS011;10514;49.468;11.044;2024-03-02T07:22:13;22.93;;;14.17;;
20705;SDS011;10514;49.468;11.044;2024-03-02T07:24:39;22.83;;;13.93;;
20705;SDS011;10514;49.468;11.044;2024-03-02T07:27:06;21.90;;;13.67;;
20705;SDS011;10514;49.468;11.044;2024-03-02T07:29:31;21.40;;;14.10;;
20705;SDS011;10514;49.468;11.044;2024-03-02T07:31:57;19.40;;;13.43;;
20705;SDS011;10514;49.468;11.044;2024-03-02T07:34:23;22.17;;;14.27;;
20705;SDS011;10514;49.468;11.044;2024-03-02T07:36:48;20.73;;;13.23;;
20705;SDS011;10514;49.468;11.044;2024-03-02T07:39:14;18.87;;;12.97;;
20705;SDS011;10514;49.468;11.044;2024-03-02T07:41:39;20.20;;;13.27;;
20705;SDS011;10514;49.468;11.044;2024-03-02T07:44:05;17.77;;;12.63;;
20705;SDS011;10514;49.468;11.044;2024-03-02T07:46:30;17.60;;;12.47;;
20705;SDS011;10514;49.468;11.044;2024-03-02T07:48:56;18.97;;;12.20;;
20705;SDS011;10514;49.468;11.044;2024-03-02T07:51:22;19.17;;;12.73;;
20705;SDS011;10514;49.468;11.044;2024-03-02T07:53:47;20.63;;;12.50;;
20705;SDS011;10514;49.468;11.044;2024-03-02T07:56:13;17.90;;;12.17;;
20705;SDS011;10514;49.468;11.044;2024-03-02T07:58:38;18.30;;;12.20;;
20705;SDS011;10514;49.468;11.044;2024-03-02T08:01:04;18.37;;;12.47;;
20705;SDS011;10514;49.468;11.044;2024-03-02T08:03:30;18.80;;;12.47;;
20705;SDS011;10514;49.468;11.044;2024-03-02T08:05:57;19.70;;;12.47;;
20705;SDS011;10514;49.468;11.044;2024-03-02T08:08:22;17.37;;;11.60;;
20705;SDS011;10514;49.468;11.044;2024-03-02T08:10:48;19.13;;;12.63;;
20705;SDS011;10514;49.468;11.044;2024-03-02T08:13:14;18.50;;;12.37;;
20705;SDS011;10514;49.468;11.044;2024-03-02T08:15:39;17.90;;;12.07;;
20705;SDS011;10514;49.468;11.044;2024-03-02T08:18:05;17.73;;;11.43;;
20705;SDS011;10514;49.468;11.044;2024-03-02T08:20:31;18.70;;;12.07;;
20705;SDS011;10514;49.468;11.044;2024-03-02T08:22:56;17.43;;;11.30;;
20705;SDS011;10514;49.468;11.044;2024-03-02T08:25:22;16.77;;;11.43;;
20705;SDS011;10514;49.468;11.044;2024-03-02T08:27:47;16.73;;;11.17;;
20705;SDS011;10514;49.468;11.044;2024-03-02T08:30:13;16.83;;;11.60;;
20705;SDS011;10514;49.468;11.044;2024-03-02T08:32:39;17.93;;;11.63;;
20705;SDS011;10514;49.468;11.044;2024-03-02T08:35:05;18.80;;;11.73;;
20705;SDS011;10514;49.468;11.044;2024-03-02T08:37:31;17.77;;;11.17;;
20705;SDS011;10514;49.468;11.044;2024-03-02T08:39:57;16.52;;;11.32;;
20705;SDS011;10514;49.468;11.044;2024-03-02T08:42:22;16.13;;;10.73;;
20705;SDS011;10514;49.468;11.044;2024-03-02T08:44:48;16.23;;;11.27;;
20705;SDS011;10514;49.468;11.044;2024-03-02T08:47:14;16.20;;;11.02;;
20705;SDS011;10514;49.468;11.044;2024-03-02T08:49:40;17.20;;;10.02;;
20705;SDS011;10514;49.468;11.044;2024-03-02T08:52:05;17.27;;;10.93;;
20705;SDS011;10514;49.468;11.044;2024-03-02T08:54:31;14.10;;;10.00;;
20705;SDS011;10514;49.468;11.044;2024-03-02T08:56:58;16.80;;;9.80;;
20705;SDS011;10514;49.468;11.044;2024-03-02T08:59:24;13.80;;;9.95;;
20705;SDS011;10514;49.468;11.044;2024-03-02T09:01:50;16.13;;;10.02;;
20705;SDS011;10514;49.468;11.044;2024-03-02T09:04:15;12.90;;;9.50;;
20705;SDS011;10514;49.468;11.044;2024-03-02T09:06:41;14.65;;;9.88;;
20705;SDS011;10514;49.468;11.044;2024-03-02T09:09:07;13.77;;;9.25;;
20705;SDS011;10514;49.468;11.044;2024-03-02T09:11:33;12.63;;;9.38;;
20705;SDS011;10514;49.468;11.044;2024-03-02T09:13:59;12.25;;;9.02;;
20705;SDS011;10514;49.468;11.044;2024-03-02T09:16:24;12.27;;;9.13;;
20705;SDS011;10514;49.468;11.044;2024-03-02T09:18:55;13.02;;;8.70;;
20705;SDS011;10514;49.468;11.044;2024-03-02T09:21:21;12.75;;;8.88;;
20705;SDS011;10514;49.468;11.044;2024-03-02T09:23:47;11.25;;;7.90;;
20705;SDS011;10514;49.468;11.044;2024-03-02T09:26:13;11.25;;;7.68;;
20705;SDS011;10514;49.468;11.044;2024-03-02T09:28:42;11.52;;;7.93;;
20705;SDS011;10514;49.468;11.044;2024-03-02T09:31:08;10.57;;;7.93;;
20705;SDS011;10514;49.468;11.044;2024-03-02T09:33:34;11.13;;;8.15;;
20705;SDS011;10514;49.468;11.044;2024-03-02T09:35:59;10.60;;;7.72;;
20705;SDS011;10514;49.468;11.044;2024-03-02T09:38:25;11.82;;;7.65;;
20705;SDS011;10514;49.468;11.044;2024-03-02T09:40:51;9.18;;;6.63;;
20705;SDS011;10514;49.468;11.044;2024-03-02T09:43:16;10.20;;;7.22;;
20705;SDS011;10514;49.468;11.044;2024-03-02T09:45:42;10.80;;;7.53;;
20705;SDS011;10514;49.468;11.044;2024-03-02T09:48:09;10.77;;;7.75;;
20705;SDS011;10514;49.468;11.044;2024-03-02T09:50:35;9.95;;;7.55;;
20705;SDS011;10514;49.468;11.044;2024-03-02T09:53:01;10.73;;;7.85;;
20705;SDS011;10514;49.468;11.044;2024-03-02T09:55:27;11.35;;;7.30;;
20705;SDS011;10514;49.468;11.044;2024-03-02T09:57:52;10.77;;;7.63;;
20705;SDS011;10514;49.468;11.044;2024-03-02T10:00:18;9.45;;;7.82;;
20705;SDS011;10514;49.468;11.044;2024-03-02T10:02:44;11.25;;;7.25;;
20705;SDS011;10514;49.468;11.044;2024-03-02T10:05:09;10.75;;;7.10;;
20705;SDS011;10514;49.468;11.044;2024-03-02T10:07:35;9.10;;;7.03;;
20705;SDS011;10514;49.468;11.044;2024-03-02T10:10:21;9.23;;;7.13;;
20705;SDS011;10514;49.468;11.044;2024-03-02T10:12:47;9.35;;;6.78;;
20705;SDS011;10514;49.468;11.044;2024-03-02T10:15:12;9.65;;;6.75;;
20705;SDS011;10514;49.468;11.044;2024-03-02T10:17:38;10.63;;;7.32;;
20705;SDS011;10514;49.468;11.044;2024-03-02T10:20:22;10.32;;;7.55;;
20705;SDS011;10514;49.468;11.044;2024-03-02T10:22:49;9.40;;;7.20;;
20705;SDS011;10514;49.468;11.044;2024-03-02T10:25:30;10.07;;;7.57;;
20705;SDS011;10514;49.468;11.044;2024-03-02T10:27:57;10.70;;;7.38;;
20705;SDS011;10514;49.468;11.044;2024-03-02T10:30:24;9.75;;;6.90;;
20705;SDS011;10514;49.468;11.044;2024-03-02T10:32:49;10.15;;;6.65;;
20705;SDS011;10514;49.468;11.044;2024-03-02T10:35:16;8.60;;;6.38;;
20705;SDS011;10514;49.468;11.044;2024-03-02T10:37:41;9.00;;;6.15;;
20705;SDS011;10514;49.468;11.044;2024-03-02T10:40:07;9.13;;;6.65;;
20705;SDS011;10514;49.468;11.044;2024-03-02T10:42:37;8.75;;;5.82;;
20705;SDS011;10514;49.468;11.044;2024-03-02T10:45:04;8.00;;;6.22;;
20705;SDS011;10514;49.468;11.044;2024-03-02T10:47:37;8.60;;;6.10;;
20705;SDS011;10514;49.468;11.044;2024-03-02T10:50:06;8.40;;;6.38;;
20705;SDS011;10514;49.468;11.044;2024-03-02T10:52:34;8.80;;;6.63;;
20705;SDS011;10514;49.468;11.044;2024-03-02T10:55:04;9.25;;;6.82;;
20705;SDS011;10514;49.468;11.044;2024-03-02T10:57:50;9.85;;;7.20;;
20705;SDS011;10514;49.468;11.044;2024-03-02T11:00:18;9.18;;;6.70;;
20705;SDS011;10514;49.468;11.044;2024-03-02T11:02:55;10.23;;;7.45;;
20705;SDS011;10514;49.468;11.044;2024-03-02T11:05:26;11.70;;;8.52;;
20705;SDS011;10514;49.468;11.044;2024-03-02T11:07:56;11.50;;;8.52;;
20705;SDS011;10514;49.468;11.044;2024-03-02T11:10:27;13.93;;;9.23;;
20705;SDS011;10514;49.468;11.044;2024-03-02T11:13:02;11.10;;;8.38;;
20705;SDS011;10514;49.468;11.044;2024-03-02T11:15:34;11.77;;;8.55;;
20705;SDS011;10514;49.468;11.044;2024-03-02T11:18:02;11.98;;;8.40;;
20705;SDS011;10514;49.468;11.044;2024-03-02T11:20:31;10.82;;;8.45;;
20705;SDS011;10514;49.468;11.044;2024-03-02T11:22:57;12.73;;;9.20;;
20705;SDS011;10514;49.468;11.044;2024-03-02T11:25:33;14.30;;;9.20;;
20705;SDS011;10514;49.468;11.044;2024-03-02T11:27:59;11.88;;;8.45;;
20705;SDS011;10514;49.468;11.044;2024-03-02T11:33:05;12.05;;;8.75;;
20705;SDS011;10514;49.468;11.044;2024-03-02T11:35:35;12.15;;;8.57;;
20705;SDS011;10514;49.468;11.044;2024-03-02T11:38:02;13.18;;;9.57;;
20705;SDS011;10514;49.468;11.044;2024-03-02T11:40:28;13.00;;;9.52;;
20705;SDS011;10514;49.468;11.044;2024-03-02T11:42:54;13.80;;;10.55;;
20705;SDS011;10514;49.468;11.044;2024-03-02T11:45:24;13.50;;;10.45;;
20705;SDS011;10514;49.468;11.044;2024-03-02T11:47:50;12.95;;;9.43;;
20705;SDS011;10514;49.468;11.044;2024-03-02T11:53:00;12.30;;;9.40;;
20705;SDS011;10514;49.468;11.044;2024-03-02T11:55:26;11.70;;;9.07;;
20705;SDS011;10514;49.468;11.044;2024-03-02T11:57:54;12.55;;;8.98;;
20705;SDS011;10514;49.468;11.044;2024-03-02T12:00:20;12.38;;;9.32;;
20705;SDS011;10514;49.468;11.044;2024-03-02T12:02:46;13.13;;;9.52;;
20705;SDS011;10514;49.468;11.044;2024-03-02T12:05:24;12.43;;;8.88;;
20705;SDS011;10514;49.468;11.044;2024-03-02T12:07:55;13.05;;;9.20;;
20705;SDS011;10514;49.468;11.044;2024-03-02T12:10:24;13.38;;;9.00;;
20705;SDS011;10514;49.468;11.044;2024-03-02T12:13:00;14.05;;;9.30;;
20705;SDS011;10514;49.468;11.044;2024-03-02T12:15:29;12.70;;;9.57;;
20705;SDS011;10514;49.468;11.044;2024-03-02T12:17:56;15.45;;;10.80;;
20705;SDS011;10514;49.468;11.044;2024-03-02T12:20:23;15.02;;;10.25;;
20705;SDS011;10514;49.468;11.044;2024-03-02T12:22:50;17.60;;;11.30;;
20705;SDS011;10514;49.468;11.044;2024-03-02T12:25:20;15.50;;;10.98;;
20705;SDS011;10514;49.468;11.044;2024-03-02T12:27:47;17.15;;;11.23;;
20705;SDS011;10514;49.468;11.044;2024-03-02T12:30:19;16.70;;;11.20;;
20705;SDS011;10514;49.468;11.044;2024-03-02T12:32:46;17.10;;;12.15;;
20705;SDS011;10514;49.468;11.044;2024-03-02T12:35:12;16.98;;;11.80;;
20705;SDS011;10514;49.468;11.044;2024-03-02T12:37:42;17.67;;;11.98;;
20705;SDS011;10514;49.468;11.044;2024-03-02T12:40:12;20.85;;;13.00;;
20705;SDS011;10514;49.468;11.044;2024-03-02T12:42:38;19.23;;;12.82;;
20705;SDS011;10514;49.468;11.044;2024-03-02T12:45:05;18.17;;;11.30;;
20705;SDS011;10514;49.468;11.044;2024-03-02T12:47:31;18.45;;;12.93;;
20705;SDS011;10514;49.468;11.044;2024-03-02T12:49:58;18.27;;;12.85;;
20705;SDS011;10514;49.468;11.044;2024-03-02T12:52:24;18.75;;;13.27;;
20705;SDS011;10514;49.468;11.044;2024-03-02T12:54:50;18.92;;;13.98;;
20705;SDS011;10514;49.468;11.044;2024-03-02T12:57:19;20.42;;;14.65;;
20705;SDS011;10514;49.468;11.044;2024-03-02T12:59:47;19.13;;;13.68;;
20705;SDS011;10514;49.468;11.044;2024-03-02T13:02:17;20.17;;;13.90;;
20705;SDS011;10514;49.468;11.044;2024-03-02T13:04:43;19.35;;;13.52;;
20705;SDS011;10514;49.468;11.044;2024-03-02T13:07:09;18.30;;;13.02;;
20705;SDS011;10514;49.468;11.044;2024-03-02T13:09:35;18.70;;;13.07;;
20705;SDS011;10514;49.468;11.044;2024-03-02T13:12:02;20.50;;;13.77;;
20705;SDS011;10514;49.468;11.044;2024-03-02T13:14:31;17.48;;;12.52;;
20705;SDS011;10514;49.468;11.044;2024-03-02T13:16:57;17.50;;;11.90;;
20705;SDS011;10514;49.468;11.044;2024-03-02T13:19:25;16.98;;;12.48;;
20705;SDS011;10514;49.468;11.044;2024-03-02T13:21:50;16.15;;;11.80;;
20705;SDS011;10514;49.468;11.044;2024-03-02T13:24:16;19.38;;;12.32;;
20705;SDS011;10514;49.468;11.044;2024-03-02T13:26:41;14.48;;;10.40;;
20705;SDS011;10514;49.468;11.044;2024-03-02T13:29:07;14.85;;;10.52;;
20705;SDS011;10514;49.468;11.044;2024-03-02T13:31:33;15.70;;;10.10;;
20705;SDS011;10514;49.468;11.044;2024-03-02T13:33:58;16.15;;;11.15;;
20705;SDS011;10514;49.468;11.044;2024-03-02T13:36:24;16.40;;;10.50;;
20705;SDS011;10514;49.468;11.044;2024-03-02T13:38:49;13.85;;;9.88;;
20705;SDS011;10514;49.468;11.044;2024-03-02T13:41:15;14.52;;;9.75;;
20705;SDS011;10514;49.468;11.044;2024-03-02T13:43:40;14.00;;;9.15;;
20705;SDS011;10514;49.468;11.044;2024-03-02T13:46:06;14.73;;;9.43;;
20705;SDS011;10514;49.468;11.044;2024-03-02T13:48:32;15.13;;;9.65;;
20705;SDS011;10514;49.468;11.044;2024-03-02T13:50:57;15.90;;;10.10;;
20705;SDS011;10514;49.468;11.044;2024-03-02T13:53:23;14.23;;;10.07;;
20705;SDS011;10514;49.468;11.044;2024-03-02T13:55:48;13.68;;;8.93;;
20705;SDS011;10514;49.468;11.044;2024-03-02T13:58:14;13.60;;;9.27;;
20705;SDS011;10514;49.468;11.044;2024-03-02T14:00:43;15.65;;;9.20;;
20705;SDS011;10514;49.468;11.044;2024-03-02T14:03:10;14.73;;;9.80;;
20705;SDS011;10514;49.468;11.044;2024-03-02T14:05:35;13.73;;;8.68;;
20705;SDS011;10514;49.468;11.044;2024-03-02T14:08:01;13.65;;;9.20;;
20705;SDS011;10514;49.468;11.044;2024-03-02T14:10:27;12.95;;;8.85;;
20705;SDS011;10514;49.468;11.044;2024-03-02T14:12:53;13.48;;;9.50;;
20705;SDS011;10514;49.468;11.044;2024-03-02T14:15:20;14.50;;;9.18;;
20705;SDS011;10514;49.468;11.044;2024-03-02T14:17:46;12.32;;;7.75;;